Time;durP1;ratioP1;P1;durP2;ratioP2;P2;SDS_P1;SDS_P2;PMS_P1;PMS_P2;Temp;Humidity;BMP_temperature;BMP_pressure;BME280_temperature;BME280_humidity;BME280_pressure;Samples;Min_cycle;Max_cycle;Signal;HPM_P1;HPM_P2
2024/01/31 00:00:53;;;;;;;;;;;17.70;45.50;;;;;;1504962;77;731;-75
2024/01/31 00:02:55;;;;;;;;;;;17.70;45.60;;;;;;1517919;77;1981;-71
2024/01/31 00:04:57;;;;;;;;;;;17.70;45.50;;;;;;1514809;77;704;-75
2024/01/31 00:06:59;;;;;;;;;;;17.70;45.50;;;;;;1507375;77;672;-76
2024/01/31 00:09:01;;;;;;;;;;;17.70;45.50;;;;;;1512756;77;721;-70
2024/01/31 00:11:03;;;;;;;;;;;17.70;45.50;;;;;;1509098;76;1183;-73
2024/01/31 00:13:05;;;;;;;;;;;17.80;45.50;;;;;;1516786;77;756;-75
2024/01/31 00:15:07;;;;;;;;;;;17.80;45.50;;;;;;1507923;77;800;-76
2024/01/31 00:17:09;;;;;;;;;;;17.70;45.50;;;;;;1512443;77;728;-71
2024/01/31 00:19:11;;;;;;;;;;;17.70;45.50;;;;;;1521825;77;704;-76
2024/01/31 00:21:13;;;;;;;;;;;17.70;45.50;;;;;;1510948;77;1151;-75
2024/01/31 00:23:15;;;;;;;;;;;17.70;45.50;;;;;;1512526;77;1945;-73
2024/01/31 00:25:17;;;;;;;;;;;17.70;45.50;;;;;;1511501;77;660;-76
2024/01/31 00:27:18;;;;;;;;;;;17.70;45.50;;;;;;1512987;77;666;-76
2024/01/31 00:29:20;;;;;;;;;;;17.70;45.50;;;;;;1518266;76;1517;-77
2024/01/31 00:31:22;;;;;;;;;;;17.70;45.50;;;;;;1481211;78;1111;-75
2024/01/31 00:33:24;;;;;;;;;;;17.70;45.50;;;;;;1479204;78;748;-75
2024/01/31 00:35:26;;;;;;;;;;;17.70;45.50;;;;;;1479204;78;736;-75
2024/01/31 00:37:28;;;;;;;;;;;17.70;45.50;;;;;;1481959;78;717;-75
2024/01/31 00:39:32;;;;;;;;;;;17.70;45.50;;;;;;1480120;78;639;-72
2024/01/31 00:41:34;;;;;;;;;;;17.70;45.50;;;;;;1476475;78;1175;-75
2024/01/31 00:43:36;;;;;;;;;;;17.70;45.50;;;;;;1484264;78;1982;-72
2024/01/31 00:45:38;;;;;;;;;;;17.70;45.50;;;;;;1514229;77;676;-76
2024/01/31 00:47:40;;;;;;;;;;;17.60;45.40;;;;;;1517922;77;685;-75
2024/01/31 00:49:42;;;;;;;;;;;17.70;45.50;;;;;;1511575;77;755;-75
2024/01/31 00:51:44;;;;;;;;;;;17.70;45.50;;;;;;1514388;77;1139;-71
2024/01/31 00:53:46;;;;;;;;;;;17.70;45.50;;;;;;1515025;77;723;-76
2024/01/31 00:55:48;;;;;;;;;;;17.70;45.50;;;;;;1510852;77;662;-75
2024/01/31 00:57:50;;;;;;;;;;;17.70;45.50;;;;;;1512891;77;770;-75
2024/01/31 00:59:52;;;;;;;;;;;17.70;45.50;;;;;;1510145;77;844;-74
2024/01/31 01:01:54;;;;;;;;;;;17.70;45.50;;;;;;1512662;77;1946;-76
2024/01/31 01:03:56;;;;;;;;;;;17.70;45.50;;;;;;1514027;77;693;-75
2024/01/31 01:05:57;;;;;;;;;;;17.70;45.50;;;;;;1509884;77;633;-75
2024/01/31 01:08:00;;;;;;;;;;;17.70;45.50;;;;;;1513843;77;710;-70
2024/01/31 01:10:02;;;;;;;;;;;17.30;45.40;;;;;;1511502;77;729;-76
2024/01/31 01:12:04;;;;;;;;;;;17.70;45.50;;;;;;1512666;77;1130;-76
2024/01/31 01:14:06;;;;;;;;;;;17.70;45.50;;;;;;1509306;77;772;-75
2024/01/31 01:16:08;;;;;;;;;;;17.80;45.50;;;;;;1507805;77;740;-76
2024/01/31 01:18:10;;;;;;;;;;;17.70;45.50;;;;;;1512083;77;730;-72
2024/01/31 01:20:12;;;;;;;;;;;17.60;45.40;;;;;;1506490;77;685;-72
2024/01/31 01:22:14;;;;;;;;;;;17.70;45.50;;;;;;1503301;77;1933;-74
2024/01/31 01:24:16;;;;;;;;;;;17.70;45.50;;;;;;1506335;77;544;-74
2024/01/31 01:26:17;;;;;;;;;;;17.70;45.50;;;;;;1503957;77;591;-69
2024/01/31 01:28:19;;;;;;;;;;;17.70;45.50;;;;;;1511199;77;797;-74
2024/01/31 01:30:21;;;;;;;;;;;17.70;45.50;;;;;;1506555;77;1521;-75
2024/01/31 01:32:23;;;;;;;;;;;17.70;45.50;;;;;;1507529;77;1156;-76
2024/01/31 01:34:25;;;;;;;;;;;17.60;45.50;;;;;;1509007;77;686;-74
2024/01/31 01:36:27;;;;;;;;;;;17.70;45.50;;;;;;1507145;77;562;-74
2024/01/31 01:38:29;;;;;;;;;;;17.70;45.50;;;;;;1507499;77;804;-74
2024/01/31 01:40:31;;;;;;;;;;;17.70;45.50;;;;;;1505983;77;653;-75
2024/01/31 01:42:32;;;;;;;;;;;17.60;45.50;;;;;;1507377;77;1938;-74
2024/01/31 01:44:34;;;;;;;;;;;17.70;45.50;;;;;;1507947;77;707;-76
2024/01/31 01:46:36;;;;;;;;;;;17.70;45.50;;;;;;1510149;77;595;-73
2024/01/31 01:48:38;;;;;;;;;;;17.70;45.50;;;;;;1510516;77;710;-71
2024/01/31 01:50:40;;;;;;;;;;;17.70;45.50;;;;;;1502516;77;680;-71
2024/01/31 01:52:42;;;;;;;;;;;17.70;45.50;;;;;;1503290;77;1121;-73
2024/01/31 01:54:45;;;;;;;;;;;17.70;45.50;;;;;;1507861;77;777;-72
2024/01/31 01:56:46;;;;;;;;;;;17.70;45.50;;;;;;1506009;77;714;-74
2024/01/31 01:58:48;;;;;;;;;;;17.70;45.50;;;;;;1508332;77;696;-76
2024/01/31 02:00:50;;;;;;;;;;;17.70;45.50;;;;;;1508445;77;738;-76
2024/01/31 02:02:52;;;;;;;;;;;17.70;45.50;;;;;;1507151;77;1949;-74
2024/01/31 02:04:54;;;;;;;;;;;17.70;45.50;;;;;;1508693;77;603;-75
2024/01/31 02:06:56;;;;;;;;;;;17.70;45.50;;;;;;1510296;77;709;-72
2024/01/31 02:08:58;;;;;;;;;;;17.70;45.50;;;;;;1506252;77;755;-71
2024/01/31 02:11:00;;;;;;;;;;;17.70;45.50;;;;;;1503140;77;1131;-73
2024/01/31 02:13:02;;;;;;;;;;;17.70;45.60;;;;;;1508086;77;813;-75
2024/01/31 02:15:04;;;;;;;;;;;17.70;45.50;;;;;;1507202;77;669;-74
2024/01/31 02:17:06;;;;;;;;;;;17.70;45.50;;;;;;1509726;77;654;-73
2024/01/31 02:19:08;;;;;;;;;;;17.70;45.50;;;;;;1514638;77;681;-73
2024/01/31 02:21:09;;;;;;;;;;;17.70;45.50;;;;;;1504328;77;1176;-74
2024/01/31 02:23:11;;;;;;;;;;;17.60;45.50;;;;;;1507546;77;1945;-74
2024/01/31 02:25:13;;;;;;;;;;;17.60;45.40;;;;;;1507715;77;740;-76
2024/01/31 02:27:15;;;;;;;;;;;17.70;45.50;;;;;;1508879;77;720;-69
2024/01/31 02:29:17;;;;;;;;;;;17.70;45.50;;;;;;1507340;77;1516;-76
2024/01/31 02:31:19;;;;;;;;;;;17.70;45.60;;;;;;1505723;77;1120;-75
2024/01/31 02:33:21;;;;;;;;;;;17.70;45.60;;;;;;1507837;77;799;-69
2024/01/31 02:35:24;;;;;;;;;;;17.70;45.50;;;;;;1508728;77;860;-74
2024/01/31 02:37:26;;;;;;;;;;;17.60;45.50;;;;;;1507393;77;693;-77
2024/01/31 02:39:28;;;;;;;;;;;17.70;45.50;;;;;;1505635;77;674;-75
2024/01/31 02:41:29;;;;;;;;;;;17.70;45.50;;;;;;1500977;77;1150;-74
2024/01/31 02:43:32;;;;;;;;;;;17.70;45.50;;;;;;1501851;77;1934;-77
2024/01/31 02:45:35;;;;;;;;;;;17.70;45.50;;;;;;1516848;77;718;-75
2024/01/31 02:47:38;;;;;;;;;;;17.60;45.50;;;;;;1509963;76;716;-76
2024/01/31 02:49:40;;;;;;;;;;;17.70;45.50;;;;;;1515500;77;747;-72
2024/01/31 02:51:42;;;;;;;;;;;17.70;45.50;;;;;;1506877;77;1134;-74
2024/01/31 02:53:44;;;;;;;;;;;17.70;45.50;;;;;;1512360;77;743;-74
2024/01/31 02:55:46;;;;;;;;;;;17.70;45.50;;;;;;1504592;77;724;-74
2024/01/31 02:57:48;;;;;;;;;;;17.70;45.50;;;;;;1507195;77;764;-75
2024/01/31 02:59:50;;;;;;;;;;;17.70;45.50;;;;;;1507741;77;721;-74
2024/01/31 03:01:52;;;;;;;;;;;17.70;45.50;;;;;;1505602;77;1177;-73
2024/01/31 03:03:53;;;;;;;;;;;17.60;45.40;;;;;;1508045;77;1941;-73
2024/01/31 03:05:55;;;;;;;;;;;17.70;45.50;;;;;;1506759;77;690;-70
2024/01/31 03:07:57;;;;;;;;;;;17.70;45.50;;;;;;1506531;77;765;-76
2024/01/31 03:09:59;;;;;;;;;;;17.70;45.50;;;;;;1507744;77;679;-74
2024/01/31 03:12:04;;;;;;;;;;;17.70;45.50;;;;;;1504518;77;1101;-74
2024/01/31 03:14:04;;;;;;;;;;;17.70;45.50;;;;;;1506912;77;1090;-74
2024/01/31 03:16:06;;;;;;;;;;;17.70;45.50;;;;;;1506814;77;726;-76
2024/01/31 03:18:08;;;;;;;;;;;17.70;45.50;;;;;;1506314;77;700;-75
2024/01/31 03:20:11;;;;;;;;;;;17.70;45.50;;;;;;1506908;77;695;-75
2024/01/31 03:22:12;;;;;;;;;;;17.70;45.50;;;;;;1504537;77;1202;-74
2024/01/31 03:24:15;;;;;;;;;;;17.70;45.50;;;;;;1505861;77;1982;-74
2024/01/31 03:26:17;;;;;;;;;;;17.70;45.50;;;;;;1507280;77;642;-77
2024/01/31 03:28:20;;;;;;;;;;;17.70;45.50;;;;;;1507491;77;740;-75
2024/01/31 03:30:22;;;;;;;;;;;17.70;45.50;;;;;;1508356;77;1582;-74
2024/01/31 03:32:24;;;;;;;;;;;17.70;45.50;;;;;;1508514;77;1096;-76
2024/01/31 03:34:26;;;;;;;;;;;17.70;45.50;;;;;;1507190;77;653;-72
2024/01/31 03:36:27;;;;;;;;;;;17.70;45.60;;;;;;1505962;77;800;-75
2024/01/31 03:38:29;;;;;;;;;;;17.70;45.50;;;;;;1505268;77;777;-70
2024/01/31 03:40:31;;;;;;;;;;;17.70;45.50;;;;;;1504482;77;718;-74
2024/01/31 03:42:33;;;;;;;;;;;17.60;45.50;;;;;;1506957;77;1154;-75
2024/01/31 03:44:35;;;;;;;;;;;17.70;45.50;;;;;;1507755;77;1933;-76
2024/01/31 03:46:37;;;;;;;;;;;17.70;45.50;;;;;;1509064;77;680;-75
2024/01/31 03:48:39;;;;;;;;;;;17.70;45.50;;;;;;1508428;77;723;-73
2024/01/31 03:50:41;;;;;;;;;;;17.70;45.50;;;;;;1505404;77;669;-73
2024/01/31 03:52:42;;;;;;;;;;;17.70;45.50;;;;;;1508311;77;1088;-74
2024/01/31 03:54:44;;;;;;;;;;;17.70;45.50;;;;;;1508661;77;545;-74
2024/01/31 03:56:46;;;;;;;;;;;17.70;45.50;;;;;;1505310;77;686;-74
2024/01/31 03:58:48;;;;;;;;;;;17.70;45.50;;;;;;1507886;77;786;-73
2024/01/31 04:00:50;;;;;;;;;;;17.70;45.50;;;;;;1513431;77;684;-75
2024/01/31 04:02:52;;;;;;;;;;;17.70;45.50;;;;;;1509541;77;1160;-76
2024/01/31 04:04:54;;;;;;;;;;;17.70;45.50;;;;;;1509051;77;1957;-74
2024/01/31 04:06:55;;;;;;;;;;;17.70;45.50;;;;;;1509068;77;714;-75
2024/01/31 04:08:57;;;;;;;;;;;17.60;45.50;;;;;;1507551;77;921;-75
2024/01/31 04:10:59;;;;;;;;;;;17.70;45.50;;;;;;1507423;77;1236;-77
2024/01/31 04:13:01;;;;;;;;;;;17.70;45.50;;;;;;1515307;77;678;-71
2024/01/31 04:15:03;;;;;;;;;;;17.70;45.50;;;;;;1507710;77;739;-76
2024/01/31 04:17:05;;;;;;;;;;;17.60;45.50;;;;;;1509387;77;660;-75
2024/01/31 04:19:07;;;;;;;;;;;17.70;45.50;;;;;;1506998;77;747;-73
2024/01/31 04:21:09;;;;;;;;;;;17.70;45.50;;;;;;1508255;77;1174;-75
2024/01/31 04:23:11;;;;;;;;;;;17.60;45.50;;;;;;1503435;77;1961;-75
2024/01/31 04:25:13;;;;;;;;;;;17.70;45.50;;;;;;1509693;77;710;-73
2024/01/31 04:27:15;;;;;;;;;;;17.70;45.50;;;;;;1509734;77;818;-75
2024/01/31 04:29:17;;;;;;;;;;;17.70;45.50;;;;;;1501834;77;1561;-74
2024/01/31 04:31:18;;;;;;;;;;;17.70;45.50;;;;;;1510070;77;1108;-75
2024/01/31 04:33:22;;;;;;;;;;;17.70;45.50;;;;;;1508224;77;676;-76
2024/01/31 04:35:24;;;;;;;;;;;17.70;45.60;;;;;;1507789;77;1565;-72
2024/01/31 04:37:26;;;;;;;;;;;17.70;45.50;;;;;;1504805;77;739;-76
2024/01/31 04:39:28;;;;;;;;;;;17.70;45.50;;;;;;1508741;77;734;-72
2024/01/31 04:41:30;;;;;;;;;;;17.70;45.50;;;;;;1503522;77;1104;-73
2024/01/31 04:43:31;;;;;;;;;;;17.60;45.40;;;;;;1506698;77;1930;-74
2024/01/31 04:45:33;;;;;;;;;;;17.70;45.50;;;;;;1505191;77;800;-74
2024/01/31 04:47:35;;;;;;;;;;;17.70;45.50;;;;;;1509247;77;573;-72
2024/01/31 04:49:37;;;;;;;;;;;17.70;45.50;;;;;;1507476;77;722;-74
2024/01/31 04:51:42;;;;;;;;;;;17.70;45.50;;;;;;1505314;77;1168;-73
2024/01/31 04:53:44;;;;;;;;;;;17.70;45.50;;;;;;1507850;77;686;-75
2024/01/31 04:55:46;;;;;;;;;;;17.70;45.50;;;;;;1505039;77;720;-75
2024/01/31 04:57:48;;;;;;;;;;;17.60;45.40;;;;;;1508080;77;663;-74
2024/01/31 04:59:50;;;;;;;;;;;17.60;45.50;;;;;;1508890;77;606;-75
2024/01/31 05:01:54;;;;;;;;;;;17.70;45.50;;;;;;1507361;77;1112;-73
2024/01/31 05:03:58;;;;;;;;;;;17.70;45.50;;;;;;1508426;77;1919;-77
2024/01/31 05:06:00;;;;;;;;;;;17.60;45.50;;;;;;1498404;77;692;-75
2024/01/31 05:08:02;;;;;;;;;;;17.60;45.50;;;;;;1510288;77;641;-76
2024/01/31 05:10:04;;;;;;;;;;;17.70;45.50;;;;;;1505009;77;678;-75
2024/01/31 05:12:06;;;;;;;;;;;17.70;45.50;;;;;;1517193;72;2055;-69
2024/01/31 05:14:09;;;;;;;;;;;17.70;45.50;;;;;;1528014;76;791;-70
2024/01/31 05:16:11;;;;;;;;;;;17.70;45.50;;;;;;1520075;76;680;-72
2024/01/31 05:18:14;;;;;;;;;;;17.70;45.50;;;;;;1529013;76;649;-70
2024/01/31 05:20:16;;;;;;;;;;;17.70;45.50;;;;;;1521782;76;737;-70
2024/01/31 05:22:18;;;;;;;;;;;17.70;45.50;;;;;;1515187;76;1197;-71
2024/01/31 05:24:20;;;;;;;;;;;17.60;45.50;;;;;;1517379;76;1935;-69
2024/01/31 05:26:22;;;;;;;;;;;17.70;45.50;;;;;;1518067;76;674;-72
2024/01/31 05:28:23;;;;;;;;;;;17.70;45.50;;;;;;1520356;76;701;-71
2024/01/31 05:30:25;;;;;;;;;;;17.70;45.50;;;;;;1495872;77;1343;-70
2024/01/31 05:32:27;;;;;;;;;;;17.70;45.50;;;;;;1497866;77;1129;-71
2024/01/31 05:34:29;;;;;;;;;;;17.70;45.50;;;;;;1487486;78;675;-71
2024/01/31 05:36:31;;;;;;;;;;;17.70;45.50;;;;;;1498593;77;776;-69
2024/01/31 05:38:33;;;;;;;;;;;17.70;45.50;;;;;;1533529;76;739;-70
2024/01/31 05:40:37;;;;;;;;;;;17.70;45.50;;;;;;1520039;76;727;-71
2024/01/31 05:42:38;;;;;;;;;;;17.60;45.40;;;;;;1517411;76;1129;-71
2024/01/31 05:44:40;;;;;;;;;;;17.70;45.50;;;;;;1523251;76;1917;-70
2024/01/31 05:46:42;;;;;;;;;;;17.70;45.50;;;;;;1520383;76;677;-72
2024/01/31 05:48:45;;;;;;;;;;;17.70;45.50;;;;;;1502099;78;1275;-71
2024/01/31 05:50:46;;;;;;;;;;;17.70;45.50;;;;;;1526102;76;759;-69
2024/01/31 05:52:48;;;;;;;;;;;17.70;45.50;;;;;;1530908;76;1170;-70
2024/01/31 05:54:50;;;;;;;;;;;17.70;45.50;;;;;;1529401;76;602;-71
2024/01/31 05:56:52;;;;;;;;;;;17.70;45.50;;;;;;1530469;76;719;-71
2024/01/31 05:58:54;;;;;;;;;;;17.70;45.50;;;;;;1498150;77;779;-69
2024/01/31 06:00:56;;;;;;;;;;;17.70;45.50;;;;;;1497315;78;731;-73
2024/01/31 06:02:58;;;;;;;;;;;17.60;45.40;;;;;;1490381;78;1182;-70
2024/01/31 06:05:00;;;;;;;;;;;17.60;45.40;;;;;;1489204;78;1943;-69
2024/01/31 06:07:02;;;;;;;;;;;17.70;45.50;;;;;;1490169;78;750;-71
2024/01/31 06:09:05;;;;;;;;;;;17.70;45.50;;;;;;1491339;77;677;-68
2024/01/31 06:11:08;;;;;;;;;;;17.70;45.50;;;;;;1497715;77;724;-71
2024/01/31 06:13:10;;;;;;;;;;;17.60;45.40;;;;;;1496697;78;1133;-71
2024/01/31 06:15:12;;;;;;;;;;;17.60;45.40;;;;;;1489302;78;685;-73
2024/01/31 06:17:14;;;;;;;;;;;17.60;45.40;;;;;;1498553;78;676;-71
2024/01/31 06:19:16;;;;;;;;;;;17.70;45.50;;;;;;1500163;77;680;-68
2024/01/31 06:21:18;;;;;;;;;;;17.60;45.50;;;;;;1493586;77;747;-72
2024/01/31 06:23:20;;;;;;;;;;;17.70;45.50;;;;;;1495713;77;1157;-71
2024/01/31 06:25:22;;;;;;;;;;;17.70;45.50;;;;;;1495873;77;1914;-71
2024/01/31 06:27:24;;;;;;;;;;;17.60;45.40;;;;;;1503409;77;713;-71
2024/01/31 06:29:26;;;;;;;;;;;17.60;45.40;;;;;;1500062;76;1725;-69
2024/01/31 06:31:28;;;;;;;;;;;17.60;45.40;;;;;;1499979;77;1118;-70
2024/01/31 06:33:34;;;;;;;;;;;17.60;45.40;;;;;;1494653;77;707;-73
2024/01/31 06:35:34;;;;;;;;;;;17.60;45.40;;;;;;1515610;77;1533;-70
2024/01/31 06:37:36;;;;;;;;;;;17.70;45.50;;;;;;1523248;77;618;-70
2024/01/31 06:39:38;;;;;;;;;;;17.60;45.40;;;;;;1513161;77;705;-67
2024/01/31 06:41:40;;;;;;;;;;;17.70;45.50;;;;;;1510161;77;1137;-71
2024/01/31 06:43:42;;;;;;;;;;;17.60;45.40;;;;;;1510705;77;663;-68
2024/01/31 06:45:45;;;;;;;;;;;17.60;45.40;;;;;;1510721;77;1933;-72
2024/01/31 06:47:47;;;;;;;;;;;17.70;45.50;;;;;;1520792;77;680;-71
2024/01/31 06:49:49;;;;;;;;;;;17.70;45.40;;;;;;1512155;77;684;-71
2024/01/31 06:51:51;;;;;;;;;;;17.60;45.40;;;;;;1510158;77;1153;-71
2024/01/31 06:53:53;;;;;;;;;;;17.60;45.40;;;;;;1522132;77;676;-70
2024/01/31 06:55:55;;;;;;;;;;;17.60;45.40;;;;;;1511424;77;655;-70
2024/01/31 06:57:57;;;;;;;;;;;17.60;45.40;;;;;;1512780;77;728;-70
2024/01/31 06:59:59;;;;;;;;;;;17.70;45.50;;;;;;1514115;77;794;-71
2024/01/31 07:02:01;;;;;;;;;;;17.60;45.40;;;;;;1514770;77;1231;-69
2024/01/31 07:04:03;;;;;;;;;;;17.40;45.20;;;;;;1512358;77;1929;-70
2024/01/31 07:06:05;;;;;;;;;;;17.60;45.40;;;;;;1508574;77;684;-71
2024/01/31 07:08:07;;;;;;;;;;;17.70;45.50;;;;;;1515420;77;780;-70
2024/01/31 07:10:09;;;;;;;;;;;17.70;45.50;;;;;;1511056;77;634;-71
2024/01/31 07:12:12;;;;;;;;;;;17.60;45.40;;;;;;1513028;77;1174;-72
2024/01/31 07:14:14;;;;;;;;;;;17.60;45.40;;;;;;1512488;77;785;-72
2024/01/31 07:16:16;;;;;;;;;;;17.70;45.50;;;;;;1515276;77;735;-71
2024/01/31 07:18:18;;;;;;;;;;;17.70;45.50;;;;;;1524425;77;675;-72
2024/01/31 07:20:20;;;;;;;;;;;17.70;45.50;;;;;;1513152;77;732;-72
2024/01/31 07:22:22;;;;;;;;;;;17.60;45.50;;;;;;1510141;77;1146;-70
2024/01/31 07:24:24;;;;;;;;;;;17.70;45.50;;;;;;1514189;77;1925;-70
2024/01/31 07:26:26;;;;;;;;;;;17.70;45.50;;;;;;1508937;77;701;-71
2024/01/31 07:28:28;;;;;;;;;;;17.60;45.50;;;;;;1512920;77;714;-71
2024/01/31 07:30:30;;;;;;;;;;;17.60;45.50;;;;;;1513293;77;1480;-71
2024/01/31 07:32:32;;;;;;;;;;;17.60;45.50;;;;;;1514426;77;1097;-71
2024/01/31 07:34:34;;;;;;;;;;;17.60;45.40;;;;;;1510895;77;677;-71
2024/01/31 07:36:36;;;;;;;;;;;17.60;45.40;;;;;;1511625;77;718;-70
2024/01/31 07:38:39;;;;;;;;;;;17.60;45.40;;;;;;1522428;77;798;-71
2024/01/31 07:40:41;;;;;;;;;;;17.70;45.50;;;;;;1515502;77;1137;-71
2024/01/31 07:42:43;;;;;;;;;;;17.60;45.40;;;;;;1508910;77;1157;-73
2024/01/31 07:44:45;;;;;;;;;;;17.70;45.50;;;;;;1513391;77;1960;-71
2024/01/31 07:46:47;;;;;;;;;;;17.70;45.50;;;;;;1512187;77;668;-70
2024/01/31 07:48:49;;;;;;;;;;;17.60;45.40;;;;;;1519797;77;680;-71
2024/01/31 07:50:51;;;;;;;;;;;17.60;45.40;;;;;;1509321;77;722;-70
2024/01/31 07:52:52;;;;;;;;;;;17.70;45.50;;;;;;1512087;77;1118;-71
2024/01/31 07:54:55;;;;;;;;;;;17.70;45.50;;;;;;1512364;77;735;-69
2024/01/31 07:56:57;;;;;;;;;;;17.60;45.40;;;;;;1510478;77;748;-70
2024/01/31 07:58:59;;;;;;;;;;;17.60;45.40;;;;;;1521212;77;680;-72
2024/01/31 08:01:01;;;;;;;;;;;17.70;45.50;;;;;;1514597;77;605;-69
2024/01/31 08:03:03;;;;;;;;;;;17.70;45.50;;;;;;1516491;77;1151;-70
2024/01/31 08:05:05;;;;;;;;;;;17.60;45.40;;;;;;1505925;77;1930;-69
2024/01/31 08:07:07;;;;;;;;;;;17.60;45.40;;;;;;1513755;77;749;-70
2024/01/31 08:09:09;;;;;;;;;;;17.60;45.40;;;;;;1517270;77;669;-71
2024/01/31 08:11:13;;;;;;;;;;;17.70;45.50;;;;;;1514420;77;755;-69
2024/01/31 08:13:15;;;;;;;;;;;17.60;45.40;;;;;;1518417;77;1135;-70
2024/01/31 08:15:17;;;;;;;;;;;17.60;45.40;;;;;;1514497;77;782;-71
2024/01/31 08:17:19;;;;;;;;;;;17.70;45.50;;;;;;1517565;77;715;-70
2024/01/31 08:19:21;;;;;;;;;;;17.70;45.50;;;;;;1518516;77;716;-72
2024/01/31 08:21:23;;;;;;;;;;;17.70;45.50;;;;;;1512410;77;1176;-69
2024/01/31 08:23:25;;;;;;;;;;;17.60;45.40;;;;;;1509473;77;680;-70
2024/01/31 08:25:27;;;;;;;;;;;17.70;45.50;;;;;;1513230;77;1899;-70
2024/01/31 08:27:29;;;;;;;;;;;17.60;45.50;;;;;;1514337;77;612;-71
2024/01/31 08:29:31;;;;;;;;;;;17.60;45.40;;;;;;1512506;77;1508;-72
2024/01/31 08:31:32;;;;;;;;;;;17.60;45.40;;;;;;1514739;77;1151;-69
2024/01/31 08:33:34;;;;;;;;;;;17.70;45.50;;;;;;1511593;77;660;-71
2024/01/31 08:35:36;;;;;;;;;;;17.60;45.40;;;;;;1508701;77;788;-68
2024/01/31 08:37:38;;;;;;;;;;;17.60;45.40;;;;;;1518458;77;770;-69
2024/01/31 08:39:41;;;;;;;;;;;17.70;45.50;;;;;;1515284;77;749;-70
2024/01/31 08:41:44;;;;;;;;;;;17.60;45.40;;;;;;1509367;77;1146;-71
2024/01/31 08:43:47;;;;;;;;;;;17.70;45.50;;;;;;1506862;77;671;-69
2024/01/31 08:45:49;;;;;;;;;;;17.60;45.40;;;;;;1510542;77;1913;-70
2024/01/31 08:47:51;;;;;;;;;;;17.70;45.50;;;;;;1519795;77;727;-69
2024/01/31 08:49:53;;;;;;;;;;;17.60;45.40;;;;;;1512896;77;870;-73
2024/01/31 08:51:54;;;;;;;;;;;17.70;45.50;;;;;;1512685;77;1143;-71
2024/01/31 08:53:56;;;;;;;;;;;17.60;45.40;;;;;;1513459;77;708;-72
2024/01/31 08:55:58;;;;;;;;;;;17.60;45.40;;;;;;1511065;77;717;-69
2024/01/31 08:58:00;;;;;;;;;;;17.70;45.50;;;;;;1514977;77;774;-70
2024/01/31 09:00:04;;;;;;;;;;;17.70;45.50;;;;;;1514394;77;689;-71
2024/01/31 09:02:07;;;;;;;;;;;17.70;45.50;;;;;;1511296;77;1139;-71
2024/01/31 09:04:09;;;;;;;;;;;17.70;45.50;;;;;;1513653;77;791;-70
2024/01/31 09:06:11;;;;;;;;;;;17.60;45.40;;;;;;1514948;77;1906;-71
2024/01/31 09:08:13;;;;;;;;;;;17.70;45.50;;;;;;1513712;77;641;-70
2024/01/31 09:10:15;;;;;;;;;;;17.60;45.40;;;;;;1513239;77;858;-69
2024/01/31 09:12:17;;;;;;;;;;;17.70;45.40;;;;;;1514770;77;1134;-70
2024/01/31 09:14:19;;;;;;;;;;;17.60;45.40;;;;;;1514427;77;773;-72
2024/01/31 09:16:21;;;;;;;;;;;17.60;45.40;;;;;;1515041;77;705;-71
2024/01/31 09:18:23;;;;;;;;;;;17.70;45.50;;;;;;1524183;77;728;-71
2024/01/31 09:20:25;;;;;;;;;;;17.60;45.30;;;;;;1506281;77;705;-71
2024/01/31 09:22:27;;;;;;;;;;;17.60;45.40;;;;;;1508986;77;1161;-71
2024/01/31 09:24:28;;;;;;;;;;;17.60;45.40;;;;;;1507982;77;705;-71
2024/01/31 09:26:30;;;;;;;;;;;17.60;45.30;;;;;;1514166;77;1923;-69
2024/01/31 09:28:32;;;;;;;;;;;17.60;45.30;;;;;;1513841;77;791;-70
2024/01/31 09:30:34;;;;;;;;;;;17.60;45.30;;;;;;1512820;77;1498;-70
2024/01/31 09:32:36;;;;;;;;;;;17.70;45.40;;;;;;1515293;77;1081;-70
2024/01/31 09:34:38;;;;;;;;;;;17.60;45.30;;;;;;1511460;77;622;-70
2024/01/31 09:36:40;;;;;;;;;;;17.60;45.30;;;;;;1512512;77;702;-71
2024/01/31 09:38:43;;;;;;;;;;;17.60;45.40;;;;;;1514708;77;714;-67
2024/01/31 09:40:45;;;;;;;;;;;17.60;45.30;;;;;;1509774;77;660;-71
2024/01/31 09:42:47;;;;;;;;;;;17.70;45.40;;;;;;1512835;77;1128;-70
2024/01/31 09:44:48;;;;;;;;;;;17.60;45.30;;;;;;1514288;77;712;-70
2024/01/31 09:46:51;;;;;;;;;;;17.60;45.30;;;;;;1510857;77;1949;-71
2024/01/31 09:48:53;;;;;;;;;;;17.70;45.40;;;;;;1512354;77;693;-72
2024/01/31 09:50:55;;;;;;;;;;;17.70;45.40;;;;;;1513918;77;725;-71
2024/01/31 09:52:57;;;;;;;;;;;17.70;45.40;;;;;;1509987;77;1126;-72
2024/01/31 09:54:59;;;;;;;;;;;17.60;45.40;;;;;;1511800;77;767;-69
2024/01/31 09:57:02;;;;;;;;;;;17.60;45.30;;;;;;1513481;77;665;-70
2024/01/31 09:59:05;;;;;;;;;;;17.60;45.40;;;;;;1512924;77;744;-73
2024/01/31 10:01:06;;;;;;;;;;;17.70;45.40;;;;;;1505850;77;801;-71
2024/01/31 10:03:09;;;;;;;;;;;17.60;45.30;;;;;;1517630;77;1096;-70
2024/01/31 10:05:11;;;;;;;;;;;17.70;45.40;;;;;;1515527;77;1917;-71
2024/01/31 10:07:13;;;;;;;;;;;17.70;45.50;;;;;;1524550;77;702;-71
2024/01/31 10:09:15;;;;;;;;;;;17.70;45.50;;;;;;1517051;77;707;-71
2024/01/31 10:11:17;;;;;;;;;;;17.60;45.30;;;;;;1511726;77;799;-70
2024/01/31 10:13:19;;;;;;;;;;;17.70;45.40;;;;;;1514964;77;1116;-72
2024/01/31 10:15:21;;;;;;;;;;;17.70;45.50;;;;;;1514597;77;724;-70
2024/01/31 10:17:23;;;;;;;;;;;17.60;45.30;;;;;;1517500;77;714;-71
2024/01/31 10:19:25;;;;;;;;;;;17.60;45.40;;;;;;1518400;77;683;-71
2024/01/31 10:21:27;;;;;;;;;;;17.70;45.40;;;;;;1513562;77;1150;-72
2024/01/31 10:23:29;;;;;;;;;;;17.70;45.40;;;;;;1512525;77;682;-69
2024/01/31 10:25:31;;;;;;;;;;;17.70;45.40;;;;;;1513253;77;1927;-69
2024/01/31 10:27:36;;;;;;;;;;;17.60;45.30;;;;;;1512842;77;725;-71
2024/01/31 10:29:38;;;;;;;;;;;17.70;45.40;;;;;;1511558;77;1546;-72
2024/01/31 10:31:40;;;;;;;;;;;17.60;45.40;;;;;;1514455;77;1142;-70
2024/01/31 10:33:41;;;;;;;;;;;17.70;45.40;;;;;;1508411;77;665;-69
2024/01/31 10:35:45;;;;;;;;;;;17.60;45.20;;;;;;1515169;77;741;-70
2024/01/31 10:37:47;;;;;;;;;;;17.70;45.40;;;;;;1517612;77;713;-70
2024/01/31 10:39:49;;;;;;;;;;;17.70;45.40;;;;;;1509075;77;744;-72
2024/01/31 10:41:51;;;;;;;;;;;17.60;45.30;;;;;;1510933;77;1106;-71
2024/01/31 10:43:53;;;;;;;;;;;17.70;45.40;;;;;;1508307;77;728;-72
2024/01/31 10:45:55;;;;;;;;;;;17.70;45.40;;;;;;1512586;77;1914;-70
2024/01/31 10:47:57;;;;;;;;;;;17.70;45.50;;;;;;1517216;77;715;-71
2024/01/31 10:50:00;;;;;;;;;;;17.60;45.40;;;;;;1508754;77;625;-70
2024/01/31 10:52:02;;;;;;;;;;;17.70;45.40;;;;;;1508093;77;1135;-70
2024/01/31 10:54:04;;;;;;;;;;;17.70;45.40;;;;;;1515344;77;727;-70
2024/01/31 10:56:06;;;;;;;;;;;17.70;45.40;;;;;;1512862;77;725;-73
2024/01/31 10:58:09;;;;;;;;;;;17.60;45.30;;;;;;1510848;77;713;-70
2024/01/31 11:00:13;;;;;;;;;;;17.70;45.40;;;;;;1511803;77;686;-70
2024/01/31 11:02:15;;;;;;;;;;;17.60;45.40;;;;;;1509830;77;1243;-70
2024/01/31 11:04:17;;;;;;;;;;;17.60;45.30;;;;;;1512757;77;804;-71
2024/01/31 11:06:19;;;;;;;;;;;17.70;45.40;;;;;;1514420;77;1928;-72
2024/01/31 11:08:21;;;;;;;;;;;17.70;45.40;;;;;;1515228;77;827;-71
2024/01/31 11:10:25;;;;;;;;;;;17.70;45.40;;;;;;1513803;77;679;-71
2024/01/31 11:12:28;;;;;;;;;;;17.70;45.40;;;;;;1514130;77;1121;-71
2024/01/31 11:14:30;;;;;;;;;;;17.70;45.40;;;;;;1514508;77;636;-72
2024/01/31 11:16:32;;;;;;;;;;;17.70;45.40;;;;;;1514249;77;811;-71
2024/01/31 11:18:35;;;;;;;;;;;17.70;45.40;;;;;;1522678;77;718;-71
2024/01/31 11:20:38;;;;;;;;;;;17.70;45.40;;;;;;1513629;77;793;-71
2024/01/31 11:22:41;;;;;;;;;;;17.70;45.40;;;;;;1509427;77;1161;-73
2024/01/31 11:24:43;;;;;;;;;;;17.60;45.30;;;;;;1513768;77;679;-70
2024/01/31 11:26:45;;;;;;;;;;;17.70;45.40;;;;;;1490310;78;1954;-72
2024/01/31 11:28:49;;;;;;;;;;;17.70;45.40;;;;;;1494364;78;666;-71
2024/01/31 11:30:55;;;;;;;;;;;17.70;45.40;;;;;;1513939;77;1424;-71
2024/01/31 11:32:54;;;;;;;;;;;17.70;45.40;;;;;;1514611;77;1096;-70
2024/01/31 11:34:59;;;;;;;;;;;17.70;45.40;;;;;;1511207;77;689;-72
2024/01/31 11:37:01;;;;;;;;;;;17.70;45.40;;;;;;1512132;77;677;-71
2024/01/31 11:39:05;;;;;;;;;;;17.70;45.40;;;;;;1514727;77;754;-70
2024/01/31 11:41:07;;;;;;;;;;;17.70;45.40;;;;;;1508730;77;737;-71
2024/01/31 11:43:09;;;;;;;;;;;17.70;45.30;;;;;;1515604;77;1080;-71
2024/01/31 11:45:11;;;;;;;;;;;17.70;45.40;;;;;;1514152;77;714;-73
2024/01/31 11:47:13;;;;;;;;;;;17.70;45.40;;;;;;1515776;77;1953;-72
2024/01/31 11:49:14;;;;;;;;;;;17.70;45.40;;;;;;1511209;77;662;-72
2024/01/31 11:51:16;;;;;;;;;;;17.70;45.40;;;;;;1513724;77;769;-72
2024/01/31 11:53:18;;;;;;;;;;;17.70;45.40;;;;;;1513230;77;1054;-69
2024/01/31 11:55:21;;;;;;;;;;;17.70;45.40;;;;;;1511929;77;709;-70
2024/01/31 11:57:23;;;;;;;;;;;17.70;45.40;;;;;;1516500;77;658;-72
2024/01/31 11:59:25;;;;;;;;;;;17.70;45.40;;;;;;1515199;77;637;-72
2024/01/31 12:01:27;;;;;;;;;;;17.60;45.30;;;;;;1522597;75;1110;-72
2024/01/31 12:03:29;;;;;;;;;;;17.70;45.40;;;;;;1520702;77;619;-71
2024/01/31 12:05:31;;;;;;;;;;;17.70;45.40;;;;;;1513598;77;753;-71
2024/01/31 12:07:33;;;;;;;;;;;17.70;45.40;;;;;;1509667;77;1922;-73